createdAt,value
2018-10-09T00:00:05.519Z,85.09
2018-10-09T00:02:34.507Z,85.06
2018-10-09T00:05:03.544Z,85.10
2018-10-09T00:07:32.445Z,85.40
2018-10-09T00:10:01.327Z,85.34
2018-10-09T00:12:30.217Z,85.10
2018-10-09T00:14:59.130Z,85.06
2018-10-09T00:17:28.040Z,85.39
2018-10-09T00:19:56.930Z,85.78
2018-10-09T00:22:25.931Z,86.15
2018-10-09T00:24:54.836Z,86.03
2018-10-09T00:27:23.715Z,86.42
2018-10-09T00:29:52.617Z,86.49
2018-10-09T00:32:21.638Z,86.64
2018-10-09T00:34:50.539Z,86.39
2018-10-09T00:37:19.504Z,86.62
2018-10-09T00:39:48.358Z,86.70
2018-10-09T00:42:17.378Z,86.63
2018-10-09T00:44:46.296Z,86.63
2018-10-09T00:47:15.240Z,86.38
2018-10-09T00:49:44.141Z,86.44
2018-10-09T00:52:13.055Z,85.83
2018-10-09T00:54:41.975Z,85.93
2018-10-09T00:57:11.021Z,86.03
2018-10-09T00:59:39.949Z,86.26
2018-10-09T01:02:08.982Z,86.06
2018-10-09T01:04:37.917Z,86.24
2018-10-09T01:07:07.146Z,86.03
2018-10-09T01:09:36.246Z,85.98
2018-10-09T01:12:05.156Z,85.42
2018-10-09T01:14:34.037Z,85.88
2018-10-09T01:17:03.125Z,86.00
2018-10-09T01:19:32.113Z,85.98
2018-10-09T01:22:01.042Z,86.52
2018-10-09T01:24:29.985Z,86.40
2018-10-09T01:26:58.878Z,86.66
2018-10-09T01:29:27.827Z,86.45
2018-10-09T01:31:56.809Z,86.82
2018-10-09T01:34:25.736Z,86.61
2018-10-09T01:36:54.849Z,86.91
2018-10-09T01:39:23.730Z,86.20
2018-10-09T01:41:52.626Z,85.96
2018-10-09T01:44:21.550Z,86.49
2018-10-09T01:46:50.744Z,86.18
2018-10-09T01:49:19.665Z,86.73
2018-10-09T01:51:48.576Z,86.27
2018-10-09T01:54:17.561Z,85.98
2018-10-09T01:56:46.450Z,85.77
2018-10-09T01:59:15.371Z,85.48
2018-10-09T02:01:44.330Z,85.53
2018-10-09T02:04:13.275Z,85.55
2018-10-09T02:06:42.239Z,85.15
2018-10-09T02:09:17.246Z,85.26
2018-10-09T02:11:48.290Z,85.43
2018-10-09T02:14:17.259Z,85.40
2018-10-09T02:16:46.148Z,85.26
2018-10-09T02:19:15.059Z,85.44
2018-10-09T02:21:43.939Z,85.76
2018-10-09T02:24:12.855Z,85.72
2018-10-09T02:26:41.734Z,86.18
2018-10-09T02:29:10.713Z,86.17
2018-10-09T02:31:39.641Z,86.15
2018-10-09T02:34:08.534Z,86.32
2018-10-09T02:36:37.453Z,86.53
2018-10-09T02:39:08.497Z,86.58
2018-10-09T02:41:38.470Z,86.80
2018-10-09T02:44:07.791Z,86.98
2018-10-09T02:46:36.729Z,87.20
2018-10-09T02:49:05.991Z,87.38
2018-10-09T02:51:34.997Z,87.33
2018-10-09T02:54:04.965Z,87.17
2018-10-09T02:56:33.879Z,87.12
2018-10-09T02:59:02.793Z,86.91
2018-10-09T03:01:31.697Z,87.34
2018-10-09T03:04:00.755Z,87.42
2018-10-09T03:06:29.643Z,87.11
2018-10-09T03:08:58.611Z,86.65
2018-10-09T03:11:27.526Z,86.72
2018-10-09T03:13:56.511Z,87.16
2018-10-09T03:16:25.510Z,86.48
2018-10-09T03:18:54.590Z,86.48
2018-10-09T03:21:24.620Z,86.43
2018-10-09T03:23:53.541Z,86.29
2018-10-09T03:26:22.476Z,86.74
2018-10-09T03:28:51.503Z,86.99
2018-10-09T03:31:20.459Z,86.83
2018-10-09T03:33:49.623Z,86.98
2018-10-09T03:36:18.568Z,86.59
2018-10-09T03:38:47.477Z,86.67
2018-10-09T03:41:16.482Z,87.30
2018-10-09T03:43:45.361Z,87.15
2018-10-09T03:46:14.529Z,87.05
2018-10-09T03:48:43.450Z,86.49
2018-10-09T03:51:12.437Z,86.41
2018-10-09T03:53:41.305Z,86.41
2018-10-09T03:56:10.206Z,86.49
2018-10-09T03:58:39.130Z,86.37
2018-10-09T04:01:08.019Z,86.58
2018-10-09T04:03:37.014Z,86.32
2018-10-09T04:06:05.994Z,86.48
2018-10-09T04:08:34.900Z,85.80
2018-10-09T04:11:03.840Z,85.60
2018-10-09T04:13:32.846Z,86.00
2018-10-09T04:16:01.746Z,85.96
2018-10-09T04:18:30.702Z,85.74
2018-10-09T04:20:59.583Z,84.95
2018-10-09T04:23:28.498Z,85.52
2018-10-09T04:27:00.818Z,85.33
2018-10-09T04:42:29.210Z,84.79
2018-10-09T04:44:58.090Z,85.72
2018-10-09T04:47:32.604Z,85.81
2018-10-09T04:50:01.514Z,86.12
2018-10-09T04:52:30.394Z,85.88
2018-10-09T04:54:59.324Z,86.06
2018-10-09T04:57:28.226Z,85.64
2018-10-09T04:59:57.137Z,85.34
2018-10-09T05:02:26.044Z,85.52
2018-10-09T05:04:54.935Z,85.51
2018-10-09T05:07:24.149Z,85.75
2018-10-09T05:09:53.083Z,86.14
2018-10-09T05:12:21.998Z,85.84
2018-10-09T05:14:50.941Z,86.05
2018-10-09T05:17:19.861Z,86.01
2018-10-09T05:19:48.926Z,85.75
2018-10-09T05:22:17.904Z,85.81
2018-10-09T05:24:46.784Z,85.84
2018-10-09T05:27:15.688Z,85.93
2018-10-09T05:29:44.667Z,86.00
2018-10-09T05:32:13.658Z,85.56
2018-10-09T05:34:49.292Z,85.83
2018-10-09T05:37:18.190Z,85.74
2018-10-09T05:39:47.074Z,85.80
2018-10-09T05:42:15.992Z,85.53
2018-10-09T05:44:45.003Z,85.23
2018-10-09T05:47:14.406Z,85.05
2018-10-09T05:49:43.527Z,84.82
2018-10-09T05:52:12.403Z,84.12
2018-10-09T05:54:41.358Z,84.00
2018-10-09T05:57:10.700Z,83.78
2018-10-09T05:59:39.702Z,84.13
2018-10-09T06:02:09.168Z,84.59
2018-10-09T06:04:38.450Z,85.93
2018-10-09T06:07:07.366Z,85.83
2018-10-09T06:09:36.284Z,85.77
2018-10-09T06:12:05.247Z,85.53
2018-10-09T06:14:34.172Z,85.07
2018-10-09T06:17:03.085Z,85.22
2018-10-09T06:19:32.016Z,85.29
2018-10-09T06:22:01.704Z,85.28
2018-10-09T06:24:30.555Z,85.81
2018-10-09T06:26:59.918Z,86.01
2018-10-09T06:29:29.299Z,85.94
2018-10-09T06:31:58.614Z,85.77
2018-10-09T06:34:27.963Z,84.31
2018-10-09T06:36:57.289Z,83.27
2018-10-09T06:39:26.569Z,83.10
2018-10-09T06:41:55.944Z,82.55
2018-10-09T06:44:25.355Z,82.46
2018-10-09T06:46:54.642Z,81.98
2018-10-09T06:49:29.446Z,82.50
2018-10-09T06:51:59.089Z,83.06
2018-10-09T06:54:28.533Z,83.46
2018-10-09T06:56:57.890Z,84.00
2018-10-09T06:59:27.418Z,84.31
2018-10-09T07:01:56.771Z,84.66
2018-10-09T07:04:26.085Z,83.39
2018-10-09T07:06:55.976Z,82.98
2018-10-09T07:09:25.351Z,82.46
2018-10-09T07:11:54.765Z,82.20
2018-10-09T07:14:24.104Z,81.57
2018-10-09T07:16:53.407Z,80.92
2018-10-09T07:19:22.723Z,79.47
2018-10-09T07:21:52.083Z,78.98
2018-10-09T07:24:21.375Z,78.21
2018-10-09T07:26:50.680Z,77.27
2018-10-09T07:29:20.259Z,76.62
2018-10-09T07:31:49.589Z,76.13
2018-10-09T07:34:18.876Z,75.46
2018-10-09T07:36:48.247Z,75.36
2018-10-09T07:39:17.632Z,75.39
2018-10-09T07:41:47.012Z,75.01
2018-10-09T07:44:16.388Z,74.54
2018-10-09T07:46:45.635Z,75.08
2018-10-09T07:49:14.903Z,74.53
2018-10-09T07:51:44.217Z,74.08
2018-10-09T07:54:13.641Z,73.99
2018-10-09T07:56:43.060Z,75.60
2018-10-09T07:59:12.801Z,75.08
2018-10-09T08:01:42.178Z,75.10
2018-10-09T08:04:11.436Z,75.34
2018-10-09T08:06:40.711Z,75.87
2018-10-09T08:09:11.632Z,76.08
2018-10-09T08:11:40.986Z,77.17
2018-10-09T08:14:10.230Z,76.50
2018-10-09T08:16:39.543Z,76.70
2018-10-09T08:19:08.908Z,76.88
2018-10-09T08:21:38.194Z,77.69
2018-10-09T08:24:07.957Z,77.29
2018-10-09T08:26:37.250Z,77.98
2018-10-09T08:29:06.564Z,78.22
2018-10-09T08:31:35.860Z,77.37
2018-10-09T08:34:05.120Z,77.49
2018-10-09T08:36:34.560Z,77.40
2018-10-09T08:39:04.766Z,76.82
2018-10-09T08:41:34.178Z,76.47
2018-10-09T08:44:03.483Z,76.87
2018-10-09T08:46:32.734Z,76.26
2018-10-09T08:49:02.392Z,76.83
2018-10-09T08:51:31.942Z,76.35
2018-10-09T08:54:01.224Z,75.89
2018-10-09T08:56:30.647Z,75.88
2018-10-09T08:58:59.948Z,75.74
2018-10-09T09:01:29.232Z,75.92
2018-10-09T09:03:58.585Z,75.61
2018-10-09T09:06:27.901Z,75.66
2018-10-09T09:08:57.157Z,75.39
2018-10-09T09:11:26.507Z,75.00
2018-10-09T09:13:55.797Z,75.04
2018-10-09T09:16:25.101Z,74.86
2018-10-09T09:18:54.497Z,75.01
2018-10-09T09:21:23.871Z,74.73
2018-10-09T09:23:53.178Z,74.69
2018-10-09T09:26:22.536Z,74.44
2018-10-09T09:28:51.896Z,74.39
2018-10-09T09:31:21.228Z,74.08
2018-10-09T09:33:50.581Z,74.12
2018-10-09T09:36:19.920Z,74.22
2018-10-09T09:38:49.583Z,74.12
2018-10-09T09:41:19.021Z,73.92
2018-10-09T09:43:48.713Z,74.25
2018-10-09T09:46:18.737Z,73.32
2018-10-09T09:48:48.161Z,73.74
2018-10-09T09:51:17.837Z,73.56
2018-10-09T09:53:47.208Z,73.51
2018-10-09T09:56:16.512Z,73.25
2018-10-09T09:58:46.141Z,73.35
2018-10-09T10:01:15.014Z,73.47
2018-10-09T10:03:44.418Z,73.35
2018-10-09T10:06:13.704Z,73.23
2018-10-09T10:08:43.049Z,73.18
2018-10-09T10:11:12.477Z,73.10
2018-10-09T10:13:41.875Z,72.87
2018-10-09T10:16:11.393Z,72.83
2018-10-09T10:18:40.866Z,73.24
2018-10-09T10:21:10.198Z,72.97
2018-10-09T10:23:39.476Z,73.29
2018-10-09T10:26:08.991Z,71.37
2018-10-09T10:28:38.512Z,71.83
2018-10-09T10:31:08.212Z,71.73
2018-10-09T10:33:37.509Z,72.13
2018-10-09T10:36:07.429Z,72.53
2018-10-09T10:38:36.986Z,72.27
2018-10-09T10:41:06.848Z,71.45
2018-10-09T10:43:36.216Z,71.41
2018-10-09T10:46:05.624Z,70.93
2018-10-09T10:48:34.901Z,70.34
2018-10-09T10:51:04.538Z,70.79
2018-10-09T10:53:34.068Z,70.57
2018-10-09T10:56:03.781Z,70.36
2018-10-09T10:58:33.085Z,71.28
2018-10-09T11:01:02.385Z,71.52
2018-10-09T11:03:31.729Z,71.40
2018-10-09T11:06:01.065Z,71.03
2018-10-09T11:08:30.399Z,71.31
2018-10-09T11:10:59.713Z,70.80
2018-10-09T11:13:29.049Z,69.51
2018-10-09T11:15:58.376Z,69.82
2018-10-09T11:18:27.735Z,69.26
2018-10-09T11:20:57.121Z,68.50
2018-10-09T11:23:26.419Z,69.68
2018-10-09T11:25:55.819Z,69.75
2018-10-09T11:28:25.106Z,68.93
2018-10-09T11:30:54.490Z,68.48
2018-10-09T11:33:25.905Z,68.42
2018-10-09T11:35:55.193Z,68.03
2018-10-09T11:38:24.557Z,66.92
2018-10-09T11:40:54.015Z,65.62
2018-10-09T11:43:23.480Z,66.18
2018-10-09T11:45:52.854Z,66.33
2018-10-09T11:48:22.126Z,65.48
2018-10-09T11:50:51.522Z,65.38
2018-10-09T11:53:20.785Z,64.37
2018-10-09T11:55:50.090Z,64.75
2018-10-09T11:58:19.392Z,64.17
2018-10-09T12:00:50.071Z,64.96
2018-10-09T12:03:19.396Z,64.10
2018-10-09T12:05:48.825Z,63.10
2018-10-09T12:08:17.977Z,63.08
2018-10-09T12:10:47.260Z,62.68
2018-10-09T12:13:16.567Z,62.13
2018-10-09T12:15:45.951Z,62.16
2018-10-09T12:18:15.360Z,62.55
2018-10-09T12:20:44.704Z,60.51
2018-10-09T12:23:19.463Z,61.15
2018-10-09T12:25:54.243Z,61.02
2018-10-09T12:28:23.687Z,61.65
2018-10-09T12:30:53.041Z,62.01
2018-10-09T12:33:22.299Z,61.29
2018-10-09T12:35:51.582Z,60.26
2018-10-09T12:38:20.960Z,60.58
2018-10-09T12:40:50.793Z,59.90
2018-10-09T12:43:20.152Z,59.76
2018-10-09T12:45:49.438Z,60.02
2018-10-09T12:48:18.922Z,60.01
2018-10-09T12:50:48.218Z,60.09
2018-10-09T12:53:17.620Z,59.70
2018-10-09T12:55:46.862Z,59.17
2018-10-09T12:58:16.271Z,58.16
2018-10-09T13:00:45.713Z,57.17
2018-10-09T13:03:15.034Z,55.47
2018-10-09T13:05:44.240Z,56.89
2018-10-09T13:08:13.560Z,56.37
2018-10-09T13:10:42.842Z,57.48
2018-10-09T13:13:12.201Z,53.11
2018-10-09T13:15:41.513Z,53.19
2018-10-09T13:18:10.869Z,52.50
2018-10-09T13:20:40.145Z,53.53
2018-10-09T13:23:09.407Z,53.92
2018-10-09T13:25:38.752Z,54.90
2018-10-09T13:28:08.014Z,54.29
2018-10-09T13:30:37.373Z,54.68
2018-10-09T13:33:06.686Z,55.82
2018-10-09T13:35:36.100Z,56.46
2018-10-09T13:38:05.485Z,56.43
2018-10-09T13:40:34.854Z,56.02
2018-10-09T13:43:04.210Z,56.56
2018-10-09T13:45:33.502Z,55.80
2018-10-09T13:48:02.898Z,55.88
2018-10-09T13:50:32.328Z,55.35
2018-10-09T13:53:01.547Z,55.34
2018-10-09T13:55:30.846Z,54.79
2018-10-09T13:58:00.101Z,53.83
2018-10-09T14:00:29.394Z,53.95
2018-10-09T14:02:59.712Z,54.72
2018-10-09T14:05:29.234Z,54.51
2018-10-09T14:07:58.868Z,54.86
2018-10-09T14:10:28.518Z,52.89
2018-10-09T14:12:57.835Z,53.06
2018-10-09T14:15:27.162Z,52.37
2018-10-09T14:17:56.436Z,52.76
2018-10-09T14:20:25.713Z,52.66
2018-10-09T14:22:55.041Z,53.24
2018-10-09T14:25:24.252Z,52.99
2018-10-09T14:27:53.603Z,53.84
2018-10-09T14:30:22.942Z,53.23
2018-10-09T14:32:52.218Z,52.58
2018-10-09T14:35:22.567Z,53.30
2018-10-09T14:37:51.901Z,54.22
2018-10-09T14:40:21.253Z,54.42
2018-10-09T14:42:50.525Z,53.55
2018-10-09T14:45:19.917Z,53.17
2018-10-09T14:47:49.156Z,53.02
2018-10-09T14:50:18.049Z,53.31
2018-10-09T14:52:52.605Z,54.56
2018-10-09T14:55:27.012Z,54.77
2018-10-09T14:57:55.883Z,54.97
2018-10-09T15:00:24.785Z,55.77
2018-10-09T15:02:53.647Z,55.42
2018-10-09T15:05:22.560Z,56.31
2018-10-09T15:07:51.454Z,56.25
2018-10-09T15:10:20.346Z,54.86
2018-10-09T15:12:49.237Z,55.08
2018-10-09T15:15:18.176Z,56.52
2018-10-09T15:17:47.165Z,54.97
2018-10-09T15:20:16.070Z,55.01
2018-10-09T15:22:44.937Z,54.78
2018-10-09T15:25:13.832Z,55.12
2018-10-09T15:27:42.725Z,56.06
2018-10-09T15:30:17.078Z,56.24
2018-10-09T15:32:46.012Z,55.74
2018-10-09T15:35:14.977Z,55.60
2018-10-09T15:37:43.887Z,55.16
2018-10-09T15:40:12.877Z,55.54
2018-10-09T15:42:41.766Z,55.94
2018-10-09T15:45:10.670Z,55.60
2018-10-09T15:47:39.539Z,55.56
2018-10-09T15:50:08.452Z,55.58
2018-10-09T15:52:37.469Z,55.86
2018-10-09T15:55:06.322Z,55.97
2018-10-09T15:57:35.208Z,56.30
2018-10-09T16:00:04.147Z,56.11
2018-10-09T16:02:33.168Z,56.46
2018-10-09T16:05:02.073Z,55.75
2018-10-09T16:07:31.000Z,56.35
2018-10-09T16:10:00.004Z,56.34
2018-10-09T16:12:30.790Z,56.63
2018-10-09T16:14:59.814Z,57.62
2018-10-09T16:17:28.718Z,56.51
2018-10-09T16:19:58.676Z,56.30
2018-10-09T16:22:27.798Z,56.41
2018-10-09T16:24:56.710Z,56.41
2018-10-09T16:27:25.617Z,56.30
2018-10-09T16:29:54.616Z,56.27
2018-10-09T16:32:23.681Z,56.61
2018-10-09T16:34:52.483Z,56.72
2018-10-09T16:37:21.351Z,56.70
2018-10-09T16:39:50.254Z,57.16
2018-10-09T16:42:19.197Z,56.75
2018-10-09T16:44:48.073Z,57.69
2018-10-09T16:47:22.834Z,56.99
2018-10-09T16:49:51.699Z,57.64
2018-10-09T16:52:20.584Z,57.51
2018-10-09T16:54:49.444Z,58.15
2018-10-09T16:57:18.411Z,58.11
2018-10-09T16:59:47.426Z,57.54
2018-10-09T17:02:16.501Z,56.90
2018-10-09T17:04:45.396Z,57.18
2018-10-09T17:07:14.374Z,57.95
2018-10-09T17:09:43.248Z,57.06
2018-10-09T17:12:12.139Z,57.22
2018-10-09T17:14:41.045Z,57.85
2018-10-09T17:17:09.988Z,58.60
2018-10-09T17:19:38.939Z,58.99
2018-10-09T17:22:07.911Z,59.61
2018-10-09T17:24:36.806Z,59.60
2018-10-09T17:27:05.687Z,59.64
2018-10-09T17:29:34.580Z,59.17
2018-10-09T17:32:03.539Z,58.83
2018-10-09T17:34:32.448Z,58.75
2018-10-09T17:37:01.366Z,58.43
2018-10-09T17:39:30.244Z,58.62
2018-10-09T17:41:59.228Z,58.77
2018-10-09T17:44:28.096Z,59.83
2018-10-09T17:46:57.117Z,59.07
2018-10-09T17:49:25.957Z,59.39
2018-10-09T17:51:54.847Z,60.13
2018-10-09T17:54:23.737Z,60.20
2018-10-09T17:56:52.683Z,60.35
2018-10-09T17:59:21.565Z,60.12
2018-10-09T18:01:50.593Z,60.18
2018-10-09T18:04:19.517Z,60.47
2018-10-09T18:06:48.442Z,59.98
2018-10-09T18:09:17.361Z,59.30
2018-10-09T18:11:46.303Z,58.50
2018-10-09T18:14:15.735Z,58.76
2018-10-09T18:16:44.706Z,59.02
2018-10-09T18:19:13.701Z,59.42
2018-10-09T18:21:42.718Z,59.27
2018-10-09T18:24:11.575Z,59.41
2018-10-09T18:26:40.857Z,59.65
2018-10-09T18:29:09.748Z,59.95
2018-10-09T18:31:38.719Z,58.09
2018-10-09T18:34:07.634Z,58.04
2018-10-09T18:36:36.523Z,58.52
2018-10-09T18:40:12.315Z,58.64
2018-10-09T18:42:41.389Z,59.35
2018-10-09T18:45:10.379Z,59.42
2018-10-09T18:47:41.780Z,58.10
2018-10-09T18:50:11.240Z,58.00
2018-10-09T18:52:40.727Z,57.03
2018-10-09T18:55:11.698Z,56.74
2018-10-09T18:57:40.599Z,56.16
2018-10-09T19:00:10.088Z,56.26
2018-10-09T19:02:39.570Z,54.67
2018-10-09T19:05:09.080Z,55.17
2018-10-09T19:07:38.275Z,54.99
2018-10-09T19:10:07.515Z,54.00
2018-10-09T19:12:36.402Z,54.40
2018-10-09T19:15:05.519Z,54.60
2018-10-09T19:17:34.409Z,52.65
2018-10-09T19:20:03.284Z,52.20
2018-10-09T19:22:32.224Z,52.80
2018-10-09T19:25:07.018Z,52.60
2018-10-09T19:27:35.971Z,52.32
2018-10-09T19:30:05.235Z,52.65
2018-10-09T19:32:34.181Z,52.77
2018-10-09T19:35:03.892Z,52.96
2018-10-09T19:37:32.809Z,53.03
2018-10-09T19:40:01.786Z,53.16
2018-10-09T19:42:30.647Z,53.31
2018-10-09T19:44:59.586Z,52.59
2018-10-09T19:47:32.781Z,53.17
2018-10-09T19:50:01.647Z,53.70
2018-10-09T19:52:42.979Z,54.39
2018-10-09T19:55:11.974Z,55.13
2018-10-09T19:57:40.940Z,54.77
2018-10-09T20:00:09.896Z,55.05
2018-10-09T20:02:38.883Z,55.09
2018-10-09T20:05:07.861Z,55.55
2018-10-09T20:07:36.771Z,55.62
2018-10-09T20:10:05.734Z,56.45
2018-10-09T20:12:34.628Z,56.38
2018-10-09T20:15:03.573Z,56.24
2018-10-09T20:17:32.542Z,56.02
2018-10-09T20:20:01.499Z,55.76
2018-10-09T20:22:30.471Z,56.36
2018-10-09T20:24:59.389Z,56.51
2018-10-09T20:27:28.289Z,56.55
2018-10-09T20:29:57.201Z,56.37
2018-10-09T20:32:26.144Z,56.53
2018-10-09T20:34:55.065Z,56.20
2018-10-09T20:37:24.051Z,56.67
2018-10-09T20:39:52.971Z,56.44
2018-10-09T20:42:28.368Z,56.35
2018-10-09T20:44:57.332Z,56.83
2018-10-09T20:47:31.616Z,56.29
2018-10-09T20:50:00.499Z,57.06
2018-10-09T20:52:30.107Z,56.67
2018-10-09T20:54:59.048Z,56.41
2018-10-09T20:57:28.018Z,56.79
2018-10-09T20:59:56.941Z,57.33
2018-10-09T21:02:25.929Z,57.27
2018-10-09T21:04:54.942Z,57.23
2018-10-09T21:07:24.064Z,57.65
2018-10-09T21:09:53.013Z,57.42
2018-10-09T21:12:22.038Z,57.38
2018-10-09T21:14:50.935Z,57.18
2018-10-09T21:17:19.975Z,57.36
2018-10-09T21:19:49.111Z,57.92
2018-10-09T21:22:18.009Z,58.11
2018-10-09T21:24:46.941Z,58.04
2018-10-09T21:27:15.848Z,58.01
2018-10-09T21:29:44.819Z,58.72
2018-10-09T21:32:13.709Z,58.58
2018-10-09T21:34:42.597Z,58.57
2018-10-09T21:37:11.736Z,58.89
2018-10-09T21:39:40.611Z,58.97
2018-10-09T21:42:09.505Z,59.61
2018-10-09T21:44:38.604Z,58.98
2018-10-09T21:47:07.491Z,59.35
2018-10-09T21:49:36.393Z,59.07
2018-10-09T21:52:05.275Z,59.21
2018-10-09T21:54:34.267Z,59.52
2018-10-09T21:57:03.219Z,59.30
2018-10-09T21:59:32.180Z,59.53
2018-10-09T22:02:01.060Z,59.36
2018-10-09T22:04:29.970Z,59.25
2018-10-09T22:06:58.854Z,59.25
2018-10-09T22:09:27.728Z,59.32
2018-10-09T22:11:56.716Z,59.63
2018-10-09T22:14:25.632Z,59.64
2018-10-09T22:16:54.629Z,60.17
2018-10-09T22:19:23.592Z,60.12
2018-10-09T22:21:52.494Z,60.50
2018-10-09T22:24:21.508Z,60.62
2018-10-09T22:26:50.462Z,59.60
2018-10-09T22:29:19.399Z,59.68
2018-10-09T22:31:48.356Z,59.71
2018-10-09T22:34:17.251Z,59.85
2018-10-09T22:36:46.174Z,60.08
2018-10-09T22:39:15.102Z,60.24
2018-10-09T22:41:43.997Z,60.26
2018-10-09T22:44:12.931Z,60.38
2018-10-09T22:46:41.832Z,60.65
2018-10-09T22:49:10.707Z,61.04
2018-10-09T22:51:39.610Z,61.22
2018-10-09T22:54:08.532Z,61.27
2018-10-09T22:56:37.484Z,61.31
2018-10-09T22:59:06.495Z,61.49
2018-10-09T23:01:35.454Z,61.68
2018-10-09T23:04:04.362Z,61.40
2018-10-09T23:06:33.247Z,61.38
2018-10-09T23:09:02.132Z,61.79
2018-10-09T23:11:31.091Z,62.15
2018-10-09T23:14:00.132Z,62.01
2018-10-09T23:16:29.028Z,62.77
2018-10-09T23:18:58.007Z,62.53
2018-10-09T23:21:26.858Z,63.27
2018-10-09T23:23:55.764Z,63.16
2018-10-09T23:26:24.688Z,63.20
2018-10-09T23:28:53.696Z,63.91
2018-10-09T23:31:22.597Z,63.81
2018-10-09T23:33:51.566Z,64.15
2018-10-09T23:36:20.487Z,64.64
2018-10-09T23:38:49.521Z,64.95
2018-10-09T23:41:18.458Z,65.23
2018-10-09T23:43:47.330Z,65.36
2018-10-09T23:46:16.250Z,65.59
2018-10-09T23:49:48.692Z,65.05
2018-10-09T23:52:17.603Z,65.18
2018-10-09T23:54:46.500Z,65.26
2018-10-09T23:57:15.398Z,65.60
2018-10-09T23:59:44.296Z,65.74
